Time;durP1;ratioP1;P1;durP2;ratioP2;P2;SDS_P1;SDS_P2;PMS_P1;PMS_P2;Temp;Humidity;BMP_temperature;BMP_pressure;BME280_temperature;BME280_humidity;BME280_pressure;Samples;Min_cycle;Max_cycle;Signal;HPM_P1;HPM_P2
2021/10/20 00:00:24;;;;;;;32.45;14.65;;;;;;;9.02;62.01;100926.62;4335332;33;33775;-90
2021/10/20 00:02:54;;;;;;;25.85;13.62;;;;;;;8.91;62.26;100925.06;4323961;33;32311;-90
2021/10/20 00:05:22;;;;;;;25.02;14.75;;;;;;;8.80;62.62;100920.91;4348128;33;33448;-89
2021/10/20 00:07:50;;;;;;;28.60;14.98;;;;;;;8.76;62.85;100920.09;4347714;33;32977;-87
2021/10/20 00:10:20;;;;;;;24.52;13.38;;;;;;;8.79;62.40;100920.06;4335553;33;32441;-87
2021/10/20 00:12:49;;;;;;;24.00;12.85;;;;;;;8.78;62.15;100920.06;4335173;33;33094;-87
2021/10/20 00:15:19;;;;;;;28.98;13.75;;;;;;;8.66;62.30;100913.25;4323274;33;33525;-87
2021/10/20 00:17:47;;;;;;;27.80;13.13;;;;;;;8.76;62.11;100919.22;4342247;33;32476;-87
2021/10/20 00:20:19;;;;;;;27.23;14.65;;;;;;;8.57;62.94;100919.56;4335201;33;31204;-87
2021/10/20 00:22:47;;;;;;;22.10;13.77;;;;;;;8.63;62.80;100918.56;4347376;33;33949;-88
2021/10/20 00:25:15;;;;;;;24.83;13.40;;;;;;;8.44;63.21;100916.25;4347606;33;33212;-88
2021/10/20 00:27:44;;;;;;;29.05;12.90;;;;;;;8.53;62.90;100912.59;4335092;33;32514;-91
2021/10/20 00:30:13;;;;;;;25.23;14.18;;;;;;;8.43;63.08;100911.91;4342279;32;32375;-90
2021/10/20 00:32:42;;;;;;;27.65;12.27;;;;;;;8.53;62.93;100902.06;4337497;32;33422;-90
2021/10/20 00:35:10;;;;;;;24.23;12.95;;;;;;;8.67;62.37;100907.97;4335672;32;32988;-90
2021/10/20 00:37:38;;;;;;;22.52;11.93;;;;;;;8.67;62.02;100909.72;4339219;32;33058;-89
2021/10/20 00:40:07;;;;;;;22.50;13.13;;;;;;;8.64;62.20;100907.13;4347781;33;32413;-91
2021/10/20 00:42:35;;;;;;;21.58;10.60;;;;;;;8.60;62.41;100908.97;4347654;33;34065;-87
2021/10/20 00:45:05;;;;;;;20.85;12.43;;;;;;;8.55;62.95;100909.97;4335192;33;33590;-87
2021/10/20 00:47:34;;;;;;;21.35;12.30;;;;;;;8.55;62.98;100909.97;4349672;32;33222;-87
2021/10/20 00:50:03;;;;;;;21.37;12.50;;;;;;;8.66;62.59;100913.25;4337465;32;32364;-87
2021/10/20 00:52:32;;;;;;;23.80;12.57;;;;;;;8.63;62.75;100914.16;4334780;33;33382;-87
2021/10/20 00:55:00;;;;;;;27.33;13.75;;;;;;;8.46;63.57;100909.22;4347281;33;32949;-87
2021/10/20 00:57:29;;;;;;;23.45;12.13;;;;;;;8.49;63.39;100905.66;4334947;33;32519;-87
2021/10/20 00:59:59;;;;;;;20.77;12.52;;;;;;;8.77;62.57;100908.66;4335395;33;32581;-87
2021/10/20 01:02:27;;;;;;;23.87;13.15;;;;;;;8.64;63.08;100899.25;4331143;32;32973;-87
2021/10/20 01:04:54;;;;;;;20.75;11.93;;;;;;;8.73;62.72;100901.72;4347029;33;33022;-87
2021/10/20 01:07:22;;;;;;;24.50;13.10;;;;;;;8.60;63.18;100897.59;4334860;33;32379;-87
2021/10/20 01:09:50;;;;;;;18.77;11.80;;;;;;;8.62;63.20;100896.66;4334492;33;33546;-87
2021/10/20 01:12:21;;;;;;;21.10;11.27;;;;;;;8.64;63.49;100886.97;4333890;33;33870;-87
2021/10/20 01:14:48;;;;;;;22.90;12.13;;;;;;;8.68;63.39;100893.03;4325229;33;32986;-87
2021/10/20 01:17:17;;;;;;;21.60;11.07;;;;;;;8.69;63.50;100892.16;4342956;32;33357;-87
2021/10/20 01:19:44;;;;;;;22.10;11.60;;;;;;;8.80;63.42;100900.72;4349626;32;32208;-87
2021/10/20 01:22:12;;;;;;;23.60;12.02;;;;;;;8.96;62.61;100896.88;4360500;32;33513;-87
2021/10/20 01:24:40;;;;;;;20.52;11.10;;;;;;;9.07;62.35;100898.41;4346934;33;34114;-87
2021/10/20 01:27:08;;;;;;;19.23;11.35;;;;;;;8.67;64.29;100893.94;4316301;33;32845;-89
2021/10/20 01:29:36;;;;;;;25.55;12.82;;;;;;;8.64;64.88;100896.59;4320283;33;33536;-91
2021/10/20 01:32:05;;;;;;;19.02;11.05;;;;;;;8.73;64.89;100893.81;4296775;33;32851;-90
2021/10/20 01:34:35;;;;;;;19.92;11.65;;;;;;;8.91;64.57;100890.81;4328028;33;33430;-88
2021/10/20 01:37:04;;;;;;;18.75;10.80;;;;;;;8.98;64.36;100889.81;4312976;33;33137;-89
2021/10/20 01:39:33;;;;;;;20.45;12.40;;;;;;;8.97;64.74;100881.94;4334623;33;32710;-90
2021/10/20 01:42:01;;;;;;;21.80;11.48;;;;;;;8.93;64.93;100893.44;4334845;33;33053;-88
2021/10/20 01:44:29;;;;;;;20.98;11.63;;;;;;;9.22;64.07;100887.59;4310801;33;33291;-89
2021/10/20 01:46:57;;;;;;;20.30;12.18;;;;;;;9.02;64.89;100888.00;4346811;33;32704;-88
2021/10/20 01:49:25;;;;;;;24.15;12.37;;;;;;;9.15;64.64;100881.56;4346797;33;33584;-88
2021/10/20 01:51:52;;;;;;;19.15;10.65;;;;;;;9.34;64.24;100881.19;4347259;33;33775;-89
2021/10/20 01:54:20;;;;;;;19.80;12.37;;;;;;;9.52;63.55;100882.56;4346268;33;32561;-89
2021/10/20 01:56:48;;;;;;;19.55;11.15;;;;;;;9.42;63.92;100880.13;4322307;33;33410;-89
2021/10/20 01:59:15;;;;;;;23.25;11.40;;;;;;;9.08;65.80;100866.78;4334333;33;32440;-89
2021/10/20 02:01:43;;;;;;;23.87;12.05;;;;;;;9.27;65.41;100869.91;4321909;33;33587;-89
2021/10/20 02:04:15;;;;;;;20.83;11.90;;;;;;;9.49;64.70;100863.28;4334468;33;32726;-89
2021/10/20 02:06:43;;;;;;;20.37;10.45;;;;;;;9.43;64.92;100859.91;4346503;33;33630;-91
2021/10/20 02:09:11;;;;;;;20.20;10.43;;;;;;;9.40;65.33;100866.12;4346935;33;33817;-90
2021/10/20 02:11:41;;;;;;;20.00;12.27;;;;;;;9.55;64.94;100864.03;4322176;33;32642;-91
2021/10/20 02:14:11;;;;;;;18.73;10.90;;;;;;;9.53;65.25;100860.56;4345210;32;32986;-91
2021/10/20 02:16:40;;;;;;;24.08;11.65;;;;;;;9.58;65.20;100848.13;4315185;32;32719;-91
2021/10/20 02:19:09;;;;;;;19.70;10.70;;;;;;;9.68;65.09;100850.50;4334246;33;32448;-90
2021/10/20 02:21:36;;;;;;;20.73;11.23;;;;;;;9.71;65.01;100852.22;4347801;32;32020;-89
2021/10/20 02:24:04;;;;;;;18.12;10.82;;;;;;;9.89;64.48;100843.03;4338494;32;33004;-90
2021/10/20 02:26:32;;;;;;;17.40;9.77;;;;;;;9.99;64.32;100848.03;4336369;33;33207;-90
2021/10/20 02:29:00;;;;;;;16.33;9.60;;;;;;;10.23;63.33;100843.03;4336564;33;32010;-90
2021/10/20 02:31:27;;;;;;;20.00;10.65;;;;;;;10.16;63.51;100844.09;4348840;33;33174;-90
2021/10/20 02:33:55;;;;;;;17.85;10.95;;;;;;;10.00;64.48;100840.97;4336185;33;33195;-90
2021/10/20 02:36:23;;;;;;;15.43;9.45;;;;;;;10.07;64.37;100833.78;4336218;33;32937;-90
2021/10/20 02:38:51;;;;;;;17.02;10.95;;;;;;;9.98;64.97;100838.38;4324227;33;33614;-90
2021/10/20 02:41:19;;;;;;;19.67;11.43;;;;;;;10.07;64.98;100831.16;4348937;33;33985;-90
2021/10/20 02:43:46;;;;;;;17.80;10.40;;;;;;;10.12;64.81;100823.97;4336941;33;33306;-91
2021/10/20 02:46:15;;;;;;;15.05;9.48;;;;;;;10.39;63.71;100817.13;4348356;33;32776;-90
2021/10/20 02:48:44;;;;;;;18.30;10.93;;;;;;;10.38;63.87;100810.13;4328546;33;33068;-90
2021/10/20 02:51:12;;;;;;;17.95;10.15;;;;;;;10.53;63.44;100809.69;4336567;33;32861;-90
2021/10/20 02:53:40;;;;;;;17.67;9.95;;;;;;;10.51;63.47;100809.75;4336136;33;33262;-90
2021/10/20 02:56:15;;;;;;;14.23;9.43;;;;;;;10.22;64.57;100799.09;4346106;32;33221;-91
2021/10/20 02:58:59;;;;;;;18.60;10.95;;;;;;;10.23;64.90;100790.25;4317417;33;31761;-91
2021/10/20 03:01:27;;;;;;;18.25;10.68;;;;;;;10.26;65.31;100800.78;4311853;33;33655;-90
2021/10/20 03:03:56;;;;;;;20.12;11.65;;;;;;;10.50;64.50;100800.09;4333465;33;34159;-90
2021/10/20 03:06:25;;;;;;;20.67;10.90;;;;;;;10.25;65.30;100789.34;4311951;33;32835;-91
2021/10/20 03:09:08;;;;;;;22.23;11.65;;;;;;;10.46;64.87;100790.53;4340701;33;32252;-91
2021/10/20 03:12:05;;;;;;;21.52;11.02;;;;;;;10.69;64.09;100797.81;4336006;33;32903;-90
2021/10/20 03:14:33;;;;;;;22.23;10.60;;;;;;;10.67;64.11;100790.84;4348458;33;33418;-90
2021/10/20 03:17:03;;;;;;;20.20;10.77;;;;;;;10.59;64.58;100792.84;4348471;33;32369;-89
2021/10/20 03:19:31;;;;;;;19.02;10.50;;;;;;;10.75;63.89;100799.41;4324444;33;32887;-89
2021/10/20 03:21:58;;;;;;;22.05;10.70;;;;;;;10.48;64.58;100803.69;4348087;33;33143;-89
2021/10/20 03:24:26;;;;;;;20.58;11.02;;;;;;;10.62;64.35;100801.53;4336391;33;32891;-89
2021/10/20 03:26:53;;;;;;;25.37;11.73;;;;;;;10.87;63.42;100793.78;4330235;33;33473;-89
2021/10/20 03:29:21;;;;;;;15.90;10.63;;;;;;;11.04;62.87;100801.22;4348401;33;32444;-89
2021/10/20 03:31:49;;;;;;;18.75;10.80;;;;;;;11.00;63.28;100803.06;4348951;33;33838;-90
2021/10/20 03:34:41;;;;;;;20.52;11.85;;;;;;;10.87;63.94;100799.06;4337177;33;34011;-90
2021/10/20 03:37:09;;;;;;;17.75;10.13;;;;;;;10.93;63.38;100798.03;4348014;33;33610;-86
2021/10/20 03:39:36;;;;;;;18.70;10.30;;;;;;;10.77;63.94;100782.59;4335962;33;32230;-89
2021/10/20 03:42:05;;;;;;;18.20;10.77;;;;;;;10.93;63.37;100785.69;4329438;33;32786;-90
2021/10/20 03:44:33;;;;;;;19.65;11.12;;;;;;;10.99;62.72;100781.97;4333891;33;33809;-90
2021/10/20 03:47:01;;;;;;;19.27;11.18;;;;;;;11.14;62.16;100785.94;4333499;33;33046;-89
2021/10/20 03:49:29;;;;;;;20.52;12.02;;;;;;;11.20;61.74;100786.63;4347951;32;32874;-90
2021/10/20 03:51:57;;;;;;;19.73;12.88;;;;;;;10.81;62.83;100791.31;4323513;33;33676;-89
2021/10/20 03:54:24;;;;;;;16.85;10.63;;;;;;;10.52;63.82;100790.34;4323721;33;32988;-89
2021/10/20 03:56:52;;;;;;;23.27;10.93;;;;;;;10.68;63.38;100797.84;4330305;33;32745;-88
2021/10/20 03:59:20;;;;;;;22.62;11.85;;;;;;;10.85;62.75;100792.94;4347342;33;33760;-87
2021/10/20 04:01:47;;;;;;;21.15;11.68;;;;;;;10.78;62.71;100794.06;4335522;33;32763;-88
2021/10/20 04:04:15;;;;;;;17.98;10.27;;;;;;;10.89;62.15;100805.16;4323279;33;34092;-88
2021/10/20 04:06:43;;;;;;;20.55;11.23;;;;;;;10.72;62.27;100804.78;4334979;33;33054;-87
2021/10/20 04:09:11;;;;;;;16.60;10.20;;;;;;;10.51;62.49;100803.59;4343060;33;31749;-87
2021/10/20 04:11:38;;;;;;;16.62;10.63;;;;;;;10.47;62.32;100802.81;4322802;33;32459;-87
2021/10/20 04:14:06;;;;;;;21.33;11.65;;;;;;;10.61;61.87;100806.84;4322870;33;32270;-88
2021/10/20 04:16:33;;;;;;;18.98;10.60;;;;;;;10.67;61.65;100798.75;4333572;33;32619;-88
2021/10/20 04:19:02;;;;;;;23.35;11.75;;;;;;;10.62;61.69;100804.16;4323387;33;32913;-87
2021/10/20 04:21:30;;;;;;;17.60;11.10;;;;;;;10.65;61.52;100796.16;4347346;33;33417;-87
2021/10/20 04:23:57;;;;;;;22.48;11.55;;;;;;;10.48;61.79;100795.75;4348423;32;33474;-88
2021/10/20 04:26:25;;;;;;;28.08;11.93;;;;;;;10.45;61.69;100790.59;4334560;33;33078;-87
2021/10/20 04:28:52;;;;;;;21.10;11.68;;;;;;;10.41;61.82;100789.78;4347443;32;32326;-88
2021/10/20 04:31:20;;;;;;;21.25;11.57;;;;;;;10.23;62.29;100798.16;4348182;33;34407;-88
2021/10/20 04:33:48;;;;;;;23.98;11.48;;;;;;;10.48;61.55;100791.34;4348091;33;32628;-87
2021/10/20 04:36:16;;;;;;;18.55;11.40;;;;;;;10.27;62.21;100796.34;4347478;33;33291;-87
2021/10/20 04:38:43;;;;;;;19.15;11.25;;;;;;;10.23;62.20;100784.97;4335495;33;32628;-87
2021/10/20 04:41:11;;;;;;;22.40;12.23;;;;;;;10.13;62.32;100776.44;4335489;33;32353;-87
2021/10/20 04:43:40;;;;;;;19.52;11.52;;;;;;;9.83;63.56;100775.47;4335087;33;33214;-87
2021/10/20 04:46:07;;;;;;;23.33;11.70;;;;;;;10.07;62.93;100768.69;4334634;33;32541;-86
2021/10/20 04:48:35;;;;;;;22.80;13.07;;;;;;;10.21;62.45;100766.53;4346777;33;32326;-87
2021/10/20 04:51:03;;;;;;;18.80;11.43;;;;;;;10.22;62.52;100763.00;4322849;33;32512;-87
2021/10/20 04:53:31;;;;;;;22.98;12.90;;;;;;;10.30;62.40;100760.16;4334725;33;33098;-87
2021/10/20 04:55:58;;;;;;;29.48;11.85;;;;;;;10.16;63.04;100762.28;4334855;33;32880;-86
2021/10/20 04:58:26;;;;;;;21.23;11.15;;;;;;;10.24;62.89;100768.25;4346830;33;33988;-87
2021/10/20 05:00:54;;;;;;;19.48;11.23;;;;;;;10.35;62.64;100763.56;4334953;33;33825;-87
2021/10/20 05:03:21;;;;;;;20.17;11.73;;;;;;;10.25;63.14;100762.06;4334791;33;32636;-87
2021/10/20 05:05:49;;;;;;;19.95;12.07;;;;;;;10.18;63.52;100755.19;4332037;33;33096;-86
2021/10/20 05:08:18;;;;;;;18.65;11.73;;;;;;;10.22;63.58;100752.44;4332373;33;34497;-87
2021/10/20 05:10:46;;;;;;;22.62;13.73;;;;;;;10.20;63.77;100748.09;4334091;33;32368;-86
2021/10/20 05:13:13;;;;;;;27.15;13.05;;;;;;;10.18;64.02;100744.63;4347430;33;34664;-87
2021/10/20 05:15:42;;;;;;;28.75;12.85;;;;;;;10.03;64.56;100739.78;4346943;33;32302;-86
2021/10/20 05:18:11;;;;;;;22.42;12.23;;;;;;;10.17;64.37;100742.91;4335119;33;32302;-86
2021/10/20 05:20:38;;;;;;;22.70;12.48;;;;;;;10.38;63.75;100739.69;4334453;33;32813;-87
2021/10/20 05:23:06;;;;;;;23.00;13.98;;;;;;;10.11;64.59;100737.78;4346956;33;33862;-87
2021/10/20 05:25:34;;;;;;;22.40;13.07;;;;;;;10.04;64.80;100733.59;4347047;33;32992;-87
2021/10/20 05:28:01;;;;;;;21.87;12.57;;;;;;;10.23;64.32;100730.41;4347009;33;32608;-88
2021/10/20 05:30:29;;;;;;;23.65;13.75;;;;;;;10.29;64.28;100731.19;4322836;33;32865;-87
2021/10/20 05:32:57;;;;;;;28.08;14.02;;;;;;;10.30;64.31;100722.34;4334806;33;32801;-87
2021/10/20 05:35:24;;;;;;;25.20;14.30;;;;;;;10.28;64.42;100732.94;4347011;33;32542;-86
2021/10/20 05:37:53;;;;;;;26.08;13.40;;;;;;;10.62;63.12;100729.34;4334556;33;32096;-86
2021/10/20 05:40:23;;;;;;;24.00;12.77;;;;;;;10.35;63.87;100737.16;4347038;33;33814;-86
2021/10/20 05:47:14;;;;;;;33.17;13.75;;;;;;;10.79;62.57;100742.94;4348434;33;34623;-86
2021/10/20 05:49:42;;;;;;;28.35;14.98;;;;;;;10.35;63.99;100734.53;4334423;33;32374;-86
2021/10/20 05:52:09;;;;;;;32.45;13.93;;;;;;;10.39;64.04;100730.00;4322452;33;33108;-86
2021/10/20 05:54:37;;;;;;;24.92;14.32;;;;;;;10.57;63.46;100736.53;4346674;33;34753;-86
2021/10/20 05:57:05;;;;;;;30.15;14.85;;;;;;;10.34;63.91;100730.12;4346372;33;33233;-86
2021/10/20 05:59:33;;;;;;;28.38;14.85;;;;;;;10.51;63.45;100724.38;4336213;33;32678;-87
2021/10/20 06:02:00;;;;;;;24.40;14.65;;;;;;;10.74;62.66;100734.28;4336441;33;32397;-86
2021/10/20 06:04:29;;;;;;;27.73;13.60;;;;;;;10.86;62.02;100736.56;4336395;33;33405;-87
2021/10/20 06:06:57;;;;;;;29.42;13.35;;;;;;;10.65;62.91;100742.47;4337961;33;33806;-88
2021/10/20 06:09:27;;;;;;;26.92;14.13;;;;;;;10.59;63.37;100745.31;4324494;33;32749;-87
2021/10/20 06:11:55;;;;;;;29.30;15.38;;;;;;;10.52;63.86;100740.19;4323893;33;32628;-86
2021/10/20 06:14:23;;;;;;;26.58;14.43;;;;;;;10.69;63.65;100747.62;4336214;33;33522;-86
2021/10/20 06:16:50;;;;;;;25.17;14.75;;;;;;;11.03;62.24;100747.50;4336319;33;33659;-86
2021/10/20 06:19:18;;;;;;;24.85;14.87;;;;;;;11.00;62.01;100752.00;4336260;33;33069;-86
2021/10/20 06:21:46;;;;;;;29.23;15.85;;;;;;;10.96;62.22;100751.22;4323771;33;32847;-86
2021/10/20 06:24:14;;;;;;;23.75;13.40;;;;;;;10.56;63.81;100748.03;4336167;33;33290;-86
2021/10/20 06:26:42;;;;;;;28.80;16.27;;;;;;;10.10;66.33;100757.16;4324050;33;33138;-87
2021/10/20 06:29:10;;;;;;;30.88;15.80;;;;;;;10.71;64.60;100745.78;4336471;33;33836;-87
2021/10/20 06:31:37;;;;;;;30.73;14.27;;;;;;;10.74;64.27;100747.50;4324024;33;33184;-86
2021/10/20 06:34:07;;;;;;;29.50;15.27;;;;;;;10.70;63.77;100746.72;4335914;33;33185;-86
2021/10/20 06:36:35;;;;;;;32.38;17.27;;;;;;;10.88;63.58;100742.69;4323714;33;32651;-86
2021/10/20 06:39:03;;;;;;;27.42;16.25;;;;;;;10.52;64.29;100748.09;4335966;33;33416;-87
2021/10/20 06:41:31;;;;;;;30.50;15.88;;;;;;;10.29;65.57;100739.97;4332645;33;32990;-86
2021/10/20 06:43:58;;;;;;;33.28;16.02;;;;;;;11.17;62.95;100743.56;4323654;33;33604;-86
2021/10/20 06:46:26;;;;;;;30.98;16.02;;;;;;;11.00;64.14;100750.22;4335789;33;34300;-87
2021/10/20 06:48:54;;;;;;;34.03;17.33;;;;;;;10.89;64.55;100760.25;4336134;33;35156;-87
2021/10/20 06:51:22;;;;;;;30.25;15.32;;;;;;;11.01;64.09;100761.66;4336010;33;33924;-86
2021/10/20 06:53:49;;;;;;;26.02;15.93;;;;;;;11.47;62.93;100760.22;4323717;33;32891;-87
2021/10/20 06:56:17;;;;;;;33.00;16.90;;;;;;;11.95;61.23;100771.00;4336131;33;33711;-87
2021/10/20 06:58:45;;;;;;;25.35;15.35;;;;;;;11.89;61.25;100762.41;4323731;33;32724;-86
2021/10/20 07:01:12;;;;;;;29.08;16.30;;;;;;;11.68;61.73;100761.28;4335691;33;33453;-86
2021/10/20 07:03:40;;;;;;;32.25;16.52;;;;;;;11.77;61.83;100758.34;4335939;33;34011;-86
2021/10/20 07:06:08;;;;;;;31.60;16.17;;;;;;;11.46;63.40;100751.44;4323431;33;33365;-87
2021/10/20 07:08:35;;;;;;;31.85;16.23;;;;;;;11.66;62.64;100755.19;4323878;33;32345;-87
2021/10/20 07:11:03;;;;;;;37.15;16.75;;;;;;;12.25;60.98;100750.56;4323054;33;34228;-87
2021/10/20 07:13:30;;;;;;;28.77;15.95;;;;;;;12.19;60.69;100752.53;4335731;33;33533;-87
2021/10/20 07:15:58;;;;;;;25.27;14.57;;;;;;;12.32;60.78;100751.19;4323549;33;33664;-87
2021/10/20 07:18:29;;;;;;;29.98;16.98;;;;;;;12.69;59.51;100748.06;4335899;33;34350;-87
2021/10/20 07:20:56;;;;;;;37.17;17.23;;;;;;;12.59;59.73;100746.69;4336197;33;33642;-87
2021/10/20 07:23:24;;;;;;;35.83;16.05;;;;;;;12.08;61.18;100750.28;4335753;33;33937;-86
2021/10/20 07:25:52;;;;;;;32.95;16.62;;;;;;;12.23;60.85;100755.03;4335705;33;33806;-87
2021/10/20 07:28:20;;;;;;;32.67;15.77;;;;;;;12.13;60.93;100748.34;4335830;33;32391;-87
2021/10/20 07:30:47;;;;;;;27.40;14.87;;;;;;;12.69;59.77;100748.06;4335856;33;33890;-87
2021/10/20 07:33:15;;;;;;;27.23;15.82;;;;;;;12.69;59.21;100747.22;4311583;33;33451;-87
2021/10/20 07:35:42;;;;;;;31.17;16.23;;;;;;;12.69;59.34;100748.06;4335531;33;33598;-87
2021/10/20 07:38:10;;;;;;;48.78;17.52;;;;;;;12.45;59.96;100744.53;4323123;33;32791;-86
2021/10/20 07:40:38;;;;;;;33.92;17.27;;;;;;;12.95;59.02;100733.81;4335582;33;34608;-86
2021/10/20 07:43:05;;;;;;;28.35;16.65;;;;;;;12.36;59.98;100736.94;4335496;33;33747;-87
2021/10/20 07:45:33;;;;;;;30.73;17.12;;;;;;;12.86;59.04;100728.00;4335523;33;33636;-87
2021/10/20 07:48:01;;;;;;;29.08;16.75;;;;;;;13.11;58.65;100739.41;4335917;33;33480;-87
2021/10/20 07:50:28;;;;;;;35.65;18.65;;;;;;;13.25;58.62;100736.25;4335925;33;33338;-87
2021/10/20 07:52:58;;;;;;;34.70;17.15;;;;;;;13.37;58.07;100725.13;4323493;33;33692;-86
2021/10/20 07:55:26;;;;;;;35.03;18.30;;;;;;;12.90;59.05;100730.47;4323623;33;32735;-87
2021/10/20 07:57:54;;;;;;;32.58;18.17;;;;;;;13.22;58.22;100725.75;4335499;33;34132;-86
2021/10/20 08:00:23;;;;;;;26.95;17.30;;;;;;;13.69;56.34;100715.00;4335444;33;34053;-86
2021/10/20 08:02:51;;;;;;;28.67;17.70;;;;;;;13.69;55.92;100713.19;4323606;33;33507;-86
2021/10/20 08:05:19;;;;;;;27.65;17.17;;;;;;;13.76;55.66;100709.34;4335296;33;32695;-86
2021/10/20 08:07:48;;;;;;;32.20;18.23;;;;;;;13.67;56.15;100708.88;4335359;33;32972;-87
2021/10/20 08:10:18;;;;;;;32.50;18.95;;;;;;;14.04;56.23;100700.19;4323614;33;33857;-87
2021/10/20 08:12:46;;;;;;;28.45;16.77;;;;;;;14.20;54.79;100700.41;4335642;33;33738;-87
2021/10/20 08:15:15;;;;;;;29.00;17.02;;;;;;;14.10;55.30;100699.94;4323508;33;33864;-86
2021/10/20 08:17:43;;;;;;;31.62;17.75;;;;;;;14.62;53.52;100691.44;4335738;33;34100;-87
2021/10/20 08:20:13;;;;;;;40.83;19.15;;;;;;;14.28;54.49;100695.59;4335777;33;33847;-87
2021/10/20 08:22:41;;;;;;;29.15;17.75;;;;;;;14.35;54.31;100699.72;4322851;33;34006;-87
2021/10/20 08:25:10;;;;;;;28.20;16.67;;;;;;;13.82;55.17;100694.97;4347406;33;34145;-86
2021/10/20 08:27:38;;;;;;;30.83;17.62;;;;;;;14.18;55.17;100686.31;4320564;33;33303;-86
2021/10/20 08:30:07;;;;;;;27.95;17.65;;;;;;;14.14;54.48;100684.72;4344714;33;33463;-86
2021/10/20 08:32:35;;;;;;;28.12;18.08;;;;;;;14.35;53.94;100681.97;4347746;33;34429;-87
2021/10/20 08:35:03;;;;;;;29.25;17.98;;;;;;;14.90;52.78;100669.72;4335220;33;32438;-88
2021/10/20 08:37:31;;;;;;;36.78;17.35;;;;;;;14.58;53.77;100672.13;4347260;33;33379;-86
2021/10/20 08:39:58;;;;;;;29.50;18.25;;;;;;;14.42;54.17;100665.75;4323274;33;33778;-87
2021/10/20 08:42:26;;;;;;;27.00;17.83;;;;;;;14.31;55.37;100668.91;4335430;33;33994;-87
2021/10/20 08:45:06;;;;;;;40.47;20.30;;;;;;;14.49;54.40;100665.44;4336599;33;33792;-87
2021/10/20 08:47:35;;;;;;;31.17;18.27;;;;;;;14.74;53.81;100654.50;4347282;33;32881;-87
2021/10/20 08:50:05;;;;;;;32.47;19.00;;;;;;;15.05;52.94;100664.56;4347137;33;34135;-86
2021/10/20 08:52:33;;;;;;;31.10;19.65;;;;;;;15.14;52.80;100662.38;4347564;33;33409;-87
2021/10/20 08:55:02;;;;;;;30.70;18.10;;;;;;;15.28;52.48;100665.22;4347455;33;34555;-87
2021/10/20 08:57:30;;;;;;;37.92;19.70;;;;;;;15.81;51.89;100664.37;4345008;33;34077;-87
2021/10/20 09:00:03;;;;;;;32.95;19.17;;;;;;;15.96;50.81;100663.56;4347440;33;33512;-87
2021/10/20 09:02:36;;;;;;;31.45;18.50;;;;;;;15.67;51.22;100674.84;4335272;33;32968;-87
2021/10/20 09:05:13;;;;;;;30.42;18.37;;;;;;;15.64;51.32;100667.00;4335062;33;32048;-87
2021/10/20 09:07:43;;;;;;;32.03;19.17;;;;;;;15.87;51.04;100666.69;4334750;33;32548;-87
2021/10/20 09:10:11;;;;;;;29.65;18.83;;;;;;;15.75;51.34;100659.31;4335092;33;33892;-87
2021/10/20 09:12:40;;;;;;;34.15;19.23;;;;;;;16.11;51.44;100664.56;4347183;33;33308;-87
2021/10/20 09:15:11;;;;;;;31.80;19.25;;;;;;;16.54;49.68;100660.44;4335462;33;34826;-87
2021/10/20 09:17:47;;;;;;;29.73;18.50;;;;;;;16.74;49.36;100656.69;4335155;33;32593;-87
2021/10/20 09:20:20;;;;;;;27.48;18.55;;;;;;;16.83;48.73;100658.00;4347132;33;32761;-86
2021/10/20 09:23:02;;;;;;;;;;;;;;;16.76;48.51;100656.59;4335215;33;33953;-86
2021/10/20 09:25:33;;;;;;;24.98;18.37;;;;;;;16.77;50.46;100656.53;4346999;33;33013;-87
2021/10/20 09:28:05;;;;;;;32.80;18.95;;;;;;;17.20;48.33;100654.09;4348659;33;33147;-86
2021/10/20 09:30:32;;;;;;;30.50;19.70;;;;;;;17.35;47.95;100647.00;4334931;33;33499;-87
2021/10/20 09:33:00;;;;;;;30.92;18.85;;;;;;;17.28;47.40;100645.62;4346333;33;34800;-84
2021/10/20 09:35:29;;;;;;;30.35;19.30;;;;;;;17.67;46.63;100637.97;4346989;33;34000;-87
2021/10/20 09:38:01;;;;;;;27.83;19.00;;;;;;;17.48;46.94;100644.50;4334797;33;33308;-84
2021/10/20 09:44:52;;;;;;;28.02;17.50;;;;;;;17.64;46.61;100632.78;4348191;33;35671;-86
2021/10/20 09:47:20;;;;;;;31.42;19.02;;;;;;;17.96;46.19;100624.69;4334581;33;34654;-85
2021/10/20 09:49:57;;;;;;;29.83;18.17;;;;;;;18.15;45.70;100624.41;4335039;33;33600;-87
2021/10/20 09:52:25;;;;;;;27.73;20.25;;;;;;;18.08;46.26;100621.25;4322655;33;32868;-87
2021/10/20 09:54:53;;;;;;;28.23;19.02;;;;;;;17.86;45.69;100620.84;4334239;33;34154;-84
2021/10/20 09:57:29;;;;;;;31.45;20.02;;;;;;;18.15;44.90;100625.28;4346535;33;34453;-84
2021/10/20 09:59:58;;;;;;;30.48;19.55;;;;;;;18.04;45.66;100608.16;4334599;33;33175;-84
2021/10/20 10:02:28;;;;;;;27.50;18.42;;;;;;;18.25;47.17;100614.00;4334352;33;33984;-84
2021/10/20 10:04:57;;;;;;;23.70;16.60;;;;;;;18.29;48.33;100611.03;4334748;33;33744;-84
2021/10/20 10:07:24;;;;;;;29.45;17.00;;;;;;;18.72;47.79;100604.81;4346403;33;34630;-85
2021/10/20 10:09:52;;;;;;;26.52;15.82;;;;;;;18.87;44.80;100598.44;4346749;33;33414;-85
2021/10/20 10:12:23;;;;;;;29.20;16.40;;;;;;;19.28;43.85;100586.81;4346213;33;33794;-85
2021/10/20 10:14:59;;;;;;;24.92;16.85;;;;;;;19.65;44.43;100585.19;4334622;33;33951;-85
2021/10/20 10:17:51;;;;;;;23.27;15.95;;;;;;;19.50;44.26;100576.34;4336307;33;32821;-85
2021/10/20 10:20:19;;;;;;;23.60;16.02;;;;;;;19.36;43.47;100576.44;4333687;33;33811;-85
2021/10/20 10:22:52;;;;;;;24.25;15.73;;;;;;;19.14;43.76;100580.56;4334216;33;33923;-85
2021/10/20 10:25:41;;;;;;;21.37;14.13;;;;;;;19.41;43.29;100574.28;4345728;33;34796;-85
2021/10/20 10:32:45;;;;;;;23.23;14.15;;;;;;;18.85;44.79;100571.81;4347262;33;33385;-84
2021/10/20 10:35:13;;;;;;;25.55;14.87;;;;;;;19.36;43.27;100555.84;4333696;33;33060;-84
2021/10/20 10:37:44;;;;;;;18.92;12.37;;;;;;;19.61;43.61;100552.41;4333501;33;32928;-85
2021/10/20 10:40:24;;;;;;;20.90;13.23;;;;;;;19.95;42.08;100544.69;4334070;33;33501;-85
2021/10/20 10:42:52;;;;;;;23.65;15.43;;;;;;;20.15;41.18;100535.22;4345911;33;33669;-85
2021/10/20 10:45:24;;;;;;;19.48;13.20;;;;;;;20.18;41.70;100530.50;4344044;33;32884;-84
2021/10/20 10:47:58;;;;;;;19.42;12.77;;;;;;;20.02;41.38;100521.81;4336125;33;34050;-85
2021/10/20 10:50:42;;;;;;;18.52;13.48;;;;;;;20.14;41.60;100526.31;4348184;33;33953;-84
2021/10/20 10:53:31;;;;;;;26.58;13.20;;;;;;;20.41;40.77;100525.25;4348173;33;32904;-84
2021/10/20 10:56:13;;;;;;;16.42;11.57;;;;;;;20.55;40.65;100516.22;4347959;33;32421;-85
2021/10/20 10:58:59;;;;;;;18.73;11.93;;;;;;;20.04;41.19;100511.84;4335893;33;34018;-84
2021/10/20 11:01:43;;;;;;;19.02;12.55;;;;;;;19.95;41.91;100497.28;4347943;33;32525;-85
2021/10/20 11:04:26;;;;;;;18.83;11.85;;;;;;;20.35;42.82;100496.22;4312178;33;32990;-84
2021/10/20 11:06:56;;;;;;;17.60;10.52;;;;;;;20.69;40.87;100492.75;4348086;33;34629;-85
2021/10/20 11:09:32;;;;;;;14.15;10.15;;;;;;;20.32;40.43;100491.94;4348268;33;33541;-84
2021/10/20 11:12:02;;;;;;;15.13;9.75;;;;;;;20.13;39.79;100480.81;4323600;33;32769;-85
2021/10/20 11:14:31;;;;;;;18.02;10.85;;;;;;;20.43;41.29;100473.22;4323833;33;33697;-85
2021/10/20 11:17:06;;;;;;;24.30;16.23;;;;;;;20.53;41.40;100475.25;4335434;33;33587;-85
2021/10/20 11:19:34;;;;;;;38.10;19.92;;;;;;;20.69;40.72;100465.94;4335866;33;34670;-85
2021/10/20 11:22:03;;;;;;;36.72;14.25;;;;;;;20.84;41.80;100460.37;4335627;33;32781;-85
2021/10/20 11:24:34;;;;;;;14.00;10.65;;;;;;;21.30;38.85;100457.69;4335699;33;33852;-85
2021/10/20 11:27:05;;;;;;;12.77;9.13;;;;;;;20.94;39.06;100454.22;4347719;33;32781;-85
2021/10/20 11:29:46;;;;;;;20.92;13.73;;;;;;;20.56;40.15;100454.44;4335580;33;33053;-86
2021/10/20 11:32:16;;;;;;;15.85;12.35;;;;;;;20.77;40.49;100443.03;4335673;33;33818;-86
2021/10/20 11:34:45;;;;;;;15.88;11.15;;;;;;;20.86;39.78;100439.66;4323380;33;32264;-84